Navoi, Uzbekistan
Current Conditions -  °F | °C
As of 12:00 PM on Friday 24 Oct 2014 (Local Time) from UTSA Reporting Station
Clear Clear  
Wind Chill: 68°   Ceiling: Unl
Heat Index: 68°   Visibility: 4mi
Dew Point: 50°   Wind: 9mph
Humidity: 52%   Direction: 160°SSE
Pressure: 30.03"   Gusts: NA
Location:  40.08°N, 65.38°E
Report Text: UTSA 240700Z 16004MPS 120V190 6000 NSC 20/10 Q1017 R07/CLRD70NOSIG
Loading
Personal Weather Stations






























Interactive Weather Map
Tropical Storm Tracking
New forecast layout! Learn more

10-Day Weather Forecast

Advertisements
Track Severe Weather on mobile